Main page
METAR-TAF:

METAR-TAF

Airports :

Belgrade Nikola Tesla Airport

Belgrade, Serbia

latitude: 44-49N, longitude: 020-17E, elevation: 96 m

Current weather observation

The report was made 46 minutes ago, at 21:30 UTC
Wind 3 kt from the Southwest
Temperature 8°C
Humidity 87%
Pressure 1009 hPa
Visibility 10 km or more
Scattered clouds at a height of 3300 ft

METAR: LYBE 242130Z 23003KT 9999 SCT033 08/06 Q1009 NOSIG

Time: 00:16 (22:16 UTC)

Forecast

The report was made 5 hours and 16 minutes ago, at 17:00 UTC
Forecast valid from 24 at 18 UTC to 25 at 18 UTC
Wind 9 kt from the West/Northwest
Visibility 10 km or more
no clouds below 1500 m and no cumulonimbus
Temporary
from 25 at 03 UTC to 25 at 06 UTC
Visibility: 4000 m
mist,

TAF: LYBE 241700Z 2418/2518 30009KT CAVOK TX15/2512Z TN05/2504Z TEMPO 2503/2506 4000 BR

Weather observations and forecasts of more than 4000 airports (METAR and TAF reports).

The available stations are represented by yellow and red dots on the map.

Hover mouse over dot to see the name of the station.

Then click to see weather observations and forecasts.

To change the map : click on the green buttons with a black cross to zoom in, on the green button with a dash to zoom out, or on the green arrows for adjacent maps.


METAR-TAF: